sensor_id;sensor_type;location;lat;lon;timestamp;pressure;altitude;pressure_sealevel;temperature;humidity
61761;BME280;47664;51.660;-0.100;2023-02-02T00:02:14;101886.11;;;6.23;62.56
61761;BME280;47664;51.660;-0.100;2023-02-02T00:04:45;101884.06;;;5.91;62.75
61761;BME280;47664;51.660;-0.100;2023-02-02T00:07:18;101891.93;;;6.74;62.11
61761;BME280;47664;51.660;-0.100;2023-02-02T00:09:49;101893.39;;;6.65;62.25
61761;BME280;47664;51.660;-0.100;2023-02-02T00:12:22;101893.24;;;6.37;62.65
61761;BME280;47664;51.660;-0.100;2023-02-02T00:14:55;101892.01;;;6.25;62.74
61761;BME280;47664;51.660;-0.100;2023-02-02T00:17:27;101894.20;;;6.66;62.45
61761;BME280;47664;51.660;-0.100;2023-02-02T00:19:59;101887.26;;;6.45;62.66
61761;BME280;47664;51.660;-0.100;2023-02-02T00:22:31;101886.31;;;6.27;62.65
61761;BME280;47664;51.660;-0.100;2023-02-02T00:25:03;101882.56;;;6.26;63.06
61761;BME280;47664;51.660;-0.100;2023-02-02T00:27:36;101883.93;;;6.54;62.71
61761;BME280;47664;51.660;-0.100;2023-02-02T00:30:08;101887.22;;;6.61;61.67
61761;BME280;47664;51.660;-0.100;2023-02-02T00:32:41;101889.22;;;6.42;61.74
61761;BME280;47664;51.660;-0.100;2023-02-02T00:35:13;101882.32;;;6.64;61.35
61761;BME280;47664;51.660;-0.100;2023-02-02T00:37:46;101880.24;;;6.29;61.53
61761;BME280;47664;51.660;-0.100;2023-02-02T00:40:19;101883.66;;;6.48;61.71
61761;BME280;47664;51.660;-0.100;2023-02-02T00:42:51;101885.45;;;6.52;61.29
61761;BME280;47664;51.660;-0.100;2023-02-02T00:45:23;101883.86;;;6.70;60.85
61761;BME280;47664;51.660;-0.100;2023-02-02T00:47:56;101881.76;;;7.04;60.06
61761;BME280;47664;51.660;-0.100;2023-02-02T00:50:28;101873.14;;;6.97;60.39
61761;BME280;47664;51.660;-0.100;2023-02-02T00:53:00;101875.75;;;6.60;61.13
61761;BME280;47664;51.660;-0.100;2023-02-02T00:55:32;101867.95;;;6.40;61.17
61761;BME280;47664;51.660;-0.100;2023-02-02T00:58:04;101870.75;;;6.72;61.32
61761;BME280;47664;51.660;-0.100;2023-02-02T01:00:36;101871.14;;;6.44;60.78
61761;BME280;47664;51.660;-0.100;2023-02-02T01:03:09;101872.10;;;6.77;60.43
61761;BME280;47664;51.660;-0.100;2023-02-02T01:05:41;101863.94;;;6.42;60.31
61761;BME280;47664;51.660;-0.100;2023-02-02T01:08:13;101860.21;;;6.40;60.47
61761;BME280;47664;51.660;-0.100;2023-02-02T01:10:44;101853.63;;;6.14;61.57
61761;BME280;47664;51.660;-0.100;2023-02-02T01:13:17;101855.73;;;6.47;60.93
61761;BME280;47664;51.660;-0.100;2023-02-02T01:15:54;101858.91;;;6.52;60.40
61761;BME280;47664;51.660;-0.100;2023-02-02T01:18:27;101852.53;;;6.63;60.38
61761;BME280;47664;51.660;-0.100;2023-02-02T01:21:02;101858.80;;;6.44;60.76
61761;BME280;47664;51.660;-0.100;2023-02-02T01:23:36;101862.21;;;6.92;59.83
61761;BME280;47664;51.660;-0.100;2023-02-02T01:26:09;101851.88;;;6.43;60.64
61761;BME280;47664;51.660;-0.100;2023-02-02T01:28:41;101858.04;;;6.30;61.11
61761;BME280;47664;51.660;-0.100;2023-02-02T01:31:16;101857.80;;;6.17;60.75
61761;BME280;47664;51.660;-0.100;2023-02-02T01:33:50;101860.65;;;6.36;60.52
61761;BME280;47664;51.660;-0.100;2023-02-02T01:36:23;101857.99;;;6.50;60.61
61761;BME280;47664;51.660;-0.100;2023-02-02T01:38:55;101851.12;;;6.05;61.13
61761;BME280;47664;51.660;-0.100;2023-02-02T01:41:29;101848.36;;;6.37;60.57
61761;BME280;47664;51.660;-0.100;2023-02-02T01:44:03;101849.19;;;6.60;60.13
61761;BME280;47664;51.660;-0.100;2023-02-02T01:46:36;101855.55;;;6.59;60.11
61761;BME280;47664;51.660;-0.100;2023-02-02T01:49:13;101853.78;;;6.33;60.59
61761;BME280;47664;51.660;-0.100;2023-02-02T01:51:47;101857.94;;;6.43;60.47
61761;BME280;47664;51.660;-0.100;2023-02-02T01:54:30;101853.70;;;6.20;61.45
61761;BME280;47664;51.660;-0.100;2023-02-02T01:57:05;101860.06;;;6.28;61.96
61761;BME280;47664;51.660;-0.100;2023-02-02T01:59:39;101855.87;;;5.38;62.67
61761;BME280;47664;51.660;-0.100;2023-02-02T02:02:12;101855.81;;;6.29;62.07
61761;BME280;47664;51.660;-0.100;2023-02-02T02:04:45;101856.44;;;5.85;61.81
61761;BME280;47664;51.660;-0.100;2023-02-02T02:07:18;101851.96;;;5.83;62.33
61761;BME280;47664;51.660;-0.100;2023-02-02T02:09:50;101852.78;;;5.67;62.64
61761;BME280;47664;51.660;-0.100;2023-02-02T02:12:22;101852.81;;;5.95;62.49
61761;BME280;47664;51.660;-0.100;2023-02-02T02:14:55;101850.54;;;5.64;62.69
61761;BME280;47664;51.660;-0.100;2023-02-02T02:17:33;101851.09;;;6.06;62.38
61761;BME280;47664;51.660;-0.100;2023-02-02T02:20:31;101842.86;;;5.88;62.84
61761;BME280;47664;51.660;-0.100;2023-02-02T02:23:22;101846.40;;;5.77;63.21
61761;BME280;47664;51.660;-0.100;2023-02-02T02:26:13;101852.21;;;5.44;63.35
61761;BME280;47664;51.660;-0.100;2023-02-02T02:29:21;101857.38;;;5.61;63.06
61761;BME280;47664;51.660;-0.100;2023-02-02T02:32:00;101860.01;;;5.66;62.48
61761;BME280;47664;51.660;-0.100;2023-02-02T02:34:42;101864.25;;;5.96;62.71
61761;BME280;47664;51.660;-0.100;2023-02-02T02:37:17;101866.07;;;5.73;62.67
61761;BME280;47664;51.660;-0.100;2023-02-02T02:39:56;101867.21;;;5.35;63.10
61761;BME280;47664;51.660;-0.100;2023-02-02T02:42:32;101861.81;;;5.75;62.76
61761;BME280;47664;51.660;-0.100;2023-02-02T02:45:07;101862.40;;;5.76;62.18
61761;BME280;47664;51.660;-0.100;2023-02-02T02:47:41;101859.81;;;5.31;62.70
61761;BME280;47664;51.660;-0.100;2023-02-02T02:50:15;101862.56;;;6.39;62.13
61761;BME280;47664;51.660;-0.100;2023-02-02T02:52:48;101864.22;;;6.15;61.42
61761;BME280;47664;51.660;-0.100;2023-02-02T02:55:20;101869.93;;;6.23;61.52
61761;BME280;47664;51.660;-0.100;2023-02-02T02:57:58;101875.29;;;6.05;62.12
61761;BME280;47664;51.660;-0.100;2023-02-02T03:00:41;101866.98;;;5.79;62.72
61761;BME280;47664;51.660;-0.100;2023-02-02T03:03:19;101862.20;;;5.85;63.20
61761;BME280;47664;51.660;-0.100;2023-02-02T03:05:53;101857.87;;;5.67;63.00
61761;BME280;47664;51.660;-0.100;2023-02-02T03:08:26;101857.13;;;5.60;63.16
61761;BME280;47664;51.660;-0.100;2023-02-02T03:11:01;101850.85;;;6.04;62.92
61761;BME280;47664;51.660;-0.100;2023-02-02T03:13:36;101855.17;;;5.88;62.56
61761;BME280;47664;51.660;-0.100;2023-02-02T03:16:09;101852.14;;;5.70;63.35
61761;BME280;47664;51.660;-0.100;2023-02-02T03:18:42;101852.48;;;5.53;63.19
61761;BME280;47664;51.660;-0.100;2023-02-02T03:21:14;101852.38;;;5.71;62.82
61761;BME280;47664;51.660;-0.100;2023-02-02T03:23:46;101858.28;;;5.74;62.41
61761;BME280;47664;51.660;-0.100;2023-02-02T03:26:18;101856.67;;;5.60;63.54
61761;BME280;47664;51.660;-0.100;2023-02-02T03:28:50;101860.46;;;5.61;63.28
61761;BME280;47664;51.660;-0.100;2023-02-02T03:31:23;101852.08;;;5.93;62.55
61761;BME280;47664;51.660;-0.100;2023-02-02T03:33:57;101861.32;;;5.26;63.39
61761;BME280;47664;51.660;-0.100;2023-02-02T03:36:29;101863.27;;;5.83;62.25
61761;BME280;47664;51.660;-0.100;2023-02-02T03:39:02;101868.92;;;5.82;61.81
61761;BME280;47664;51.660;-0.100;2023-02-02T03:41:34;101867.29;;;5.76;62.13
61761;BME280;47664;51.660;-0.100;2023-02-02T03:44:06;101871.46;;;5.99;62.38
61761;BME280;47664;51.660;-0.100;2023-02-02T03:46:39;101874.62;;;5.51;62.67
61761;BME280;47664;51.660;-0.100;2023-02-02T03:49:10;101872.17;;;6.17;61.79
61761;BME280;47664;51.660;-0.100;2023-02-02T03:51:43;101869.16;;;6.05;61.07
61761;BME280;47664;51.660;-0.100;2023-02-02T03:54:15;101872.07;;;6.13;61.19
61761;BME280;47664;51.660;-0.100;2023-02-02T03:56:47;101877.36;;;5.74;61.44
61761;BME280;47664;51.660;-0.100;2023-02-02T03:59:19;101882.00;;;5.69;62.15
61761;BME280;47664;51.660;-0.100;2023-02-02T04:01:51;101878.93;;;5.93;61.74
61761;BME280;47664;51.660;-0.100;2023-02-02T04:04:24;101880.10;;;5.79;61.33
61761;BME280;47664;51.660;-0.100;2023-02-02T04:06:56;101881.56;;;6.27;60.45
61761;BME280;47664;51.660;-0.100;2023-02-02T04:09:28;101882.47;;;5.98;61.27
61761;BME280;47664;51.660;-0.100;2023-02-02T04:12:00;101887.87;;;6.13;60.29
61761;BME280;47664;51.660;-0.100;2023-02-02T04:14:32;101889.03;;;6.61;59.28
61761;BME280;47664;51.660;-0.100;2023-02-02T04:17:04;101895.04;;;6.51;58.53
61761;BME280;47664;51.660;-0.100;2023-02-02T04:19:37;101898.58;;;6.63;58.11
61761;BME280;47664;51.660;-0.100;2023-02-02T04:22:08;101898.16;;;6.98;57.64
61761;BME280;47664;51.660;-0.100;2023-02-02T04:24:41;101901.06;;;6.73;57.92
61761;BME280;47664;51.660;-0.100;2023-02-02T04:27:13;101902.12;;;6.74;57.83
61761;BME280;47664;51.660;-0.100;2023-02-02T04:29:45;101904.34;;;6.83;57.36
61761;BME280;47664;51.660;-0.100;2023-02-02T04:32:15;101897.41;;;7.07;57.17
61761;BME280;47664;51.660;-0.100;2023-02-02T04:34:47;101889.69;;;7.25;56.67
61761;BME280;47664;51.660;-0.100;2023-02-02T04:37:20;101889.82;;;7.37;56.42
61761;BME280;47664;51.660;-0.100;2023-02-02T04:39:52;101888.86;;;6.93;56.65
61761;BME280;47664;51.660;-0.100;2023-02-02T04:42:24;101886.26;;;7.23;56.30
61761;BME280;47664;51.660;-0.100;2023-02-02T04:44:56;101888.03;;;7.19;56.25
61761;BME280;47664;51.660;-0.100;2023-02-02T04:47:28;101887.08;;;7.34;55.84
61761;BME280;47664;51.660;-0.100;2023-02-02T04:50:00;101893.14;;;7.47;55.87
61761;BME280;47664;51.660;-0.100;2023-02-02T04:52:33;101892.50;;;7.02;56.51
61761;BME280;47664;51.660;-0.100;2023-02-02T04:55:06;101893.22;;;7.06;56.71
61761;BME280;47664;51.660;-0.100;2023-02-02T04:57:38;101891.96;;;7.09;56.84
61761;BME280;47664;51.660;-0.100;2023-02-02T05:00:11;101890.38;;;6.92;57.27
61761;BME280;47664;51.660;-0.100;2023-02-02T05:02:44;101886.94;;;6.68;57.80
61761;BME280;47664;51.660;-0.100;2023-02-02T05:05:17;101888.24;;;6.84;57.89
61761;BME280;47664;51.660;-0.100;2023-02-02T05:07:49;101886.12;;;6.72;57.29
61761;BME280;47664;51.660;-0.100;2023-02-02T05:10:21;101891.32;;;6.78;57.32
61761;BME280;47664;51.660;-0.100;2023-02-02T05:12:56;101891.12;;;6.90;56.97
61761;BME280;47664;51.660;-0.100;2023-02-02T05:15:28;101895.99;;;6.54;57.74
61761;BME280;47664;51.660;-0.100;2023-02-02T05:18:00;101898.46;;;6.50;57.77
61761;BME280;47664;51.660;-0.100;2023-02-02T05:20:32;101908.66;;;6.54;57.77
61761;BME280;47664;51.660;-0.100;2023-02-02T05:23:04;101907.01;;;6.91;57.07
61761;BME280;47664;51.660;-0.100;2023-02-02T05:25:37;101903.99;;;6.55;57.48
61761;BME280;47664;51.660;-0.100;2023-02-02T05:28:10;101908.02;;;6.54;57.69
61761;BME280;47664;51.660;-0.100;2023-02-02T05:30:43;101909.49;;;6.32;58.53
61761;BME280;47664;51.660;-0.100;2023-02-02T05:33:15;101909.25;;;6.48;58.34
61761;BME280;47664;51.660;-0.100;2023-02-02T05:35:48;101906.87;;;6.15;58.61
61761;BME280;47664;51.660;-0.100;2023-02-02T05:38:21;101899.65;;;6.21;58.47
61761;BME280;47664;51.660;-0.100;2023-02-02T05:40:53;101894.67;;;6.52;57.88
61761;BME280;47664;51.660;-0.100;2023-02-02T05:43:24;101890.65;;;6.79;58.40
61761;BME280;47664;51.660;-0.100;2023-02-02T05:45:56;101890.64;;;6.70;58.48
61761;BME280;47664;51.660;-0.100;2023-02-02T05:48:30;101895.78;;;6.46;58.58
61761;BME280;47664;51.660;-0.100;2023-02-02T05:51:05;101901.27;;;6.42;58.49
61761;BME280;47664;51.660;-0.100;2023-02-02T05:53:37;101901.35;;;6.38;58.79
61761;BME280;47664;51.660;-0.100;2023-02-02T05:56:09;101902.64;;;6.22;59.07
61761;BME280;47664;51.660;-0.100;2023-02-02T05:58:42;101902.51;;;6.21;58.77
61761;BME280;47664;51.660;-0.100;2023-02-02T06:01:15;101901.85;;;6.64;58.87
61761;BME280;47664;51.660;-0.100;2023-02-02T06:03:48;101907.12;;;6.55;58.21
61761;BME280;47664;51.660;-0.100;2023-02-02T06:06:19;101911.05;;;7.19;58.10
61761;BME280;47664;51.660;-0.100;2023-02-02T06:08:52;101914.25;;;6.82;57.83
61761;BME280;47664;51.660;-0.100;2023-02-02T06:11:24;101911.34;;;6.78;57.75
61761;BME280;47664;51.660;-0.100;2023-02-02T06:13:56;101918.46;;;6.84;57.27
61761;BME280;47664;51.660;-0.100;2023-02-02T06:16:28;101920.91;;;6.80;57.81
61761;BME280;47664;51.660;-0.100;2023-02-02T06:19:01;101925.30;;;7.10;57.12
61761;BME280;47664;51.660;-0.100;2023-02-02T06:21:33;101925.03;;;7.34;56.65
61761;BME280;47664;51.660;-0.100;2023-02-02T06:24:06;101925.77;;;7.19;56.58
61761;BME280;47664;51.660;-0.100;2023-02-02T06:26:38;101923.16;;;6.83;56.35
61761;BME280;47664;51.660;-0.100;2023-02-02T06:29:11;101926.06;;;7.31;56.56
61761;BME280;47664;51.660;-0.100;2023-02-02T06:31:43;101924.32;;;6.58;56.25
61761;BME280;47664;51.660;-0.100;2023-02-02T06:34:16;101927.32;;;7.00;57.10
61761;BME280;47664;51.660;-0.100;2023-02-02T06:36:48;101931.59;;;7.04;57.10
61761;BME280;47664;51.660;-0.100;2023-02-02T06:39:20;101932.15;;;6.80;57.44
61761;BME280;47664;51.660;-0.100;2023-02-02T06:41:52;101933.80;;;6.88;57.31
61761;BME280;47664;51.660;-0.100;2023-02-02T06:44:24;101940.04;;;6.95;57.57
61761;BME280;47664;51.660;-0.100;2023-02-02T06:46:56;101941.27;;;6.43;58.29
61761;BME280;47664;51.660;-0.100;2023-02-02T06:49:29;101939.08;;;6.31;58.26
61761;BME280;47664;51.660;-0.100;2023-02-02T06:52:01;101934.79;;;6.74;58.48
61761;BME280;47664;51.660;-0.100;2023-02-02T06:54:33;101932.88;;;6.32;58.99
61761;BME280;47664;51.660;-0.100;2023-02-02T06:57:05;101930.83;;;6.39;58.97
61761;BME280;47664;51.660;-0.100;2023-02-02T06:59:37;101930.96;;;6.54;58.14
61761;BME280;47664;51.660;-0.100;2023-02-02T07:02:10;101934.25;;;6.65;57.48
61761;BME280;47664;51.660;-0.100;2023-02-02T07:04:43;101936.76;;;6.28;57.33
61761;BME280;47664;51.660;-0.100;2023-02-02T07:07:15;101938.18;;;7.06;56.77
61761;BME280;47664;51.660;-0.100;2023-02-02T07:09:47;101935.36;;;6.92;56.51
61761;BME280;47664;51.660;-0.100;2023-02-02T07:12:19;101934.87;;;7.01;56.87
61761;BME280;47664;51.660;-0.100;2023-02-02T07:14:51;101931.35;;;7.02;56.48
61761;BME280;47664;51.660;-0.100;2023-02-02T07:17:24;101936.37;;;7.38;56.17
61761;BME280;47664;51.660;-0.100;2023-02-02T07:19:56;101932.38;;;7.23;56.10
61761;BME280;47664;51.660;-0.100;2023-02-02T07:22:28;101931.38;;;7.44;56.24
61761;BME280;47664;51.660;-0.100;2023-02-02T07:25:00;101931.67;;;6.63;56.80
61761;BME280;47664;51.660;-0.100;2023-02-02T07:27:32;101932.45;;;7.15;56.93
61761;BME280;47664;51.660;-0.100;2023-02-02T07:30:05;101939.18;;;6.86;57.64
61761;BME280;47664;51.660;-0.100;2023-02-02T07:32:38;101936.49;;;6.53;57.87
61761;BME280;47664;51.660;-0.100;2023-02-02T07:35:11;101936.76;;;7.10;57.53
61761;BME280;47664;51.660;-0.100;2023-02-02T07:37:43;101936.39;;;7.02;57.27
61761;BME280;47664;51.660;-0.100;2023-02-02T07:40:15;101937.26;;;6.95;57.72
61761;BME280;47664;51.660;-0.100;2023-02-02T07:42:45;101939.74;;;6.44;58.86
61761;BME280;47664;51.660;-0.100;2023-02-02T07:45:18;101941.39;;;6.51;58.72
61761;BME280;47664;51.660;-0.100;2023-02-02T07:47:54;101937.68;;;6.70;58.43
61761;BME280;47664;51.660;-0.100;2023-02-02T07:50:28;101945.46;;;6.75;59.03
61761;BME280;47664;51.660;-0.100;2023-02-02T07:53:00;101952.25;;;6.13;59.93
61761;BME280;47664;51.660;-0.100;2023-02-02T07:55:33;101951.84;;;6.25;61.26
61761;BME280;47664;51.660;-0.100;2023-02-02T07:58:06;101951.60;;;6.33;60.45
61761;BME280;47664;51.660;-0.100;2023-02-02T08:00:38;101956.78;;;6.05;60.62
61761;BME280;47664;51.660;-0.100;2023-02-02T08:03:10;101960.57;;;6.58;60.48
61761;BME280;47664;51.660;-0.100;2023-02-02T08:05:43;101963.83;;;6.32;60.81
61761;BME280;47664;51.660;-0.100;2023-02-02T08:08:15;101968.29;;;6.36;60.65
61761;BME280;47664;51.660;-0.100;2023-02-02T08:10:47;101970.30;;;5.95;61.40
61761;BME280;47664;51.660;-0.100;2023-02-02T08:13:20;101975.64;;;6.38;61.19
61761;BME280;47664;51.660;-0.100;2023-02-02T08:15:52;101974.31;;;6.14;61.30
61761;BME280;47664;51.660;-0.100;2023-02-02T08:18:24;101972.96;;;5.93;61.98
61761;BME280;47664;51.660;-0.100;2023-02-02T08:20:57;101972.36;;;6.40;61.67
61761;BME280;47664;51.660;-0.100;2023-02-02T08:23:30;101972.17;;;6.27;61.89
61761;BME280;47664;51.660;-0.100;2023-02-02T08:26:05;101975.98;;;5.94;62.93
61761;BME280;47664;51.660;-0.100;2023-02-02T08:28:38;101973.49;;;5.89;63.81
61761;BME280;47664;51.660;-0.100;2023-02-02T08:31:13;101975.61;;;5.96;63.78
61761;BME280;47664;51.660;-0.100;2023-02-02T08:33:46;101978.21;;;5.48;63.47
61761;BME280;47664;51.660;-0.100;2023-02-02T08:36:19;101977.84;;;6.63;62.60
61761;BME280;47664;51.660;-0.100;2023-02-02T08:38:51;101976.34;;;6.05;64.30
61761;BME280;47664;51.660;-0.100;2023-02-02T08:41:26;101973.54;;;5.93;64.67
61761;BME280;47664;51.660;-0.100;2023-02-02T08:43:58;101971.71;;;5.73;64.83
61761;BME280;47664;51.660;-0.100;2023-02-02T08:46:30;101967.29;;;6.24;64.52
61761;BME280;47664;51.660;-0.100;2023-02-02T08:49:03;101972.47;;;5.75;65.68
61761;BME280;47664;51.660;-0.100;2023-02-02T08:51:35;101974.54;;;6.00;65.04
61761;BME280;47664;51.660;-0.100;2023-02-02T08:54:07;101978.43;;;5.59;66.27
61761;BME280;47664;51.660;-0.100;2023-02-02T08:56:39;101979.97;;;5.88;65.38
61761;BME280;47664;51.660;-0.100;2023-02-02T08:59:11;101976.74;;;6.71;64.63
61761;BME280;47664;51.660;-0.100;2023-02-02T09:01:43;101980.06;;;6.07;63.93
61761;BME280;47664;51.660;-0.100;2023-02-02T09:04:14;101985.36;;;6.57;63.18
61761;BME280;47664;51.660;-0.100;2023-02-02T09:06:47;101986.88;;;7.05;63.40
61761;BME280;47664;51.660;-0.100;2023-02-02T09:09:20;101992.15;;;6.12;66.35
61761;BME280;47664;51.660;-0.100;2023-02-02T09:11:53;101991.80;;;6.01;66.53
61761;BME280;47664;51.660;-0.100;2023-02-02T09:14:25;101987.95;;;6.17;66.11
61761;BME280;47664;51.660;-0.100;2023-02-02T09:16:58;101993.00;;;6.25;66.28
61761;BME280;47664;51.660;-0.100;2023-02-02T09:19:30;101992.18;;;6.36;66.23
61761;BME280;47664;51.660;-0.100;2023-02-02T09:22:02;101989.52;;;6.13;67.21
61761;BME280;47664;51.660;-0.100;2023-02-02T09:24:35;101983.79;;;6.30;66.88
61761;BME280;47664;51.660;-0.100;2023-02-02T09:27:07;101983.77;;;6.35;67.66
61761;BME280;47664;51.660;-0.100;2023-02-02T09:29:39;101983.08;;;6.25;67.24
61761;BME280;47664;51.660;-0.100;2023-02-02T09:32:11;101980.06;;;6.07;67.80
61761;BME280;47664;51.660;-0.100;2023-02-02T09:34:43;101988.03;;;5.60;68.59
61761;BME280;47664;51.660;-0.100;2023-02-02T09:37:16;101994.66;;;6.30;69.85
61761;BME280;47664;51.660;-0.100;2023-02-02T09:39:48;101993.66;;;6.20;69.15
61761;BME280;47664;51.660;-0.100;2023-02-02T09:42:28;101997.96;;;5.84;70.43
61761;BME280;47664;51.660;-0.100;2023-02-02T09:45:07;101998.46;;;6.17;70.40
61761;BME280;47664;51.660;-0.100;2023-02-02T09:47:51;102006.73;;;5.95;69.45
61761;BME280;47664;51.660;-0.100;2023-02-02T09:50:30;102007.81;;;6.78;68.56
61761;BME280;47664;51.660;-0.100;2023-02-02T09:53:04;102007.60;;;6.87;68.45
61761;BME280;47664;51.660;-0.100;2023-02-02T09:55:42;102011.55;;;6.78;67.62
61761;BME280;47664;51.660;-0.100;2023-02-02T09:58:15;102015.53;;;6.58;68.14
61761;BME280;47664;51.660;-0.100;2023-02-02T10:00:52;102011.02;;;6.65;67.58
61761;BME280;47664;51.660;-0.100;2023-02-02T10:03:28;102010.95;;;6.81;67.81
61761;BME280;47664;51.660;-0.100;2023-02-02T10:06:03;102010.39;;;6.77;69.25
61761;BME280;47664;51.660;-0.100;2023-02-02T10:08:41;102013.08;;;6.54;69.57
61761;BME280;47664;51.660;-0.100;2023-02-02T10:11:25;102018.51;;;6.90;69.25
61761;BME280;47664;51.660;-0.100;2023-02-02T10:14:01;102020.55;;;6.92;69.31
61761;BME280;47664;51.660;-0.100;2023-02-02T10:16:36;102022.53;;;7.33;68.69
61761;BME280;47664;51.660;-0.100;2023-02-02T10:19:09;102027.43;;;7.25;68.67
61761;BME280;47664;51.660;-0.100;2023-02-02T10:21:42;102027.99;;;6.70;68.92
61761;BME280;47664;51.660;-0.100;2023-02-02T10:24:17;102026.05;;;7.07;68.16
61761;BME280;47664;51.660;-0.100;2023-02-02T10:26:52;102024.26;;;7.05;68.69
61761;BME280;47664;51.660;-0.100;2023-02-02T10:29:31;102029.48;;;7.32;68.10
61761;BME280;47664;51.660;-0.100;2023-02-02T10:32:09;102030.14;;;7.07;68.32
61761;BME280;47664;51.660;-0.100;2023-02-02T10:34:50;102031.30;;;7.02;68.11
61761;BME280;47664;51.660;-0.100;2023-02-02T10:37:25;102027.46;;;7.33;67.73
61761;BME280;47664;51.660;-0.100;2023-02-02T10:40:14;102028.25;;;7.40;68.11
61761;BME280;47664;51.660;-0.100;2023-02-02T10:43:06;102030.32;;;7.36;67.77
61761;BME280;47664;51.660;-0.100;2023-02-02T10:45:46;102034.40;;;7.29;67.84
61761;BME280;47664;51.660;-0.100;2023-02-02T10:48:21;102039.44;;;7.65;67.43
61761;BME280;47664;51.660;-0.100;2023-02-02T10:50:51;102044.56;;;7.61;67.60
61761;BME280;47664;51.660;-0.100;2023-02-02T10:53:25;102048.82;;;7.56;67.53
61761;BME280;47664;51.660;-0.100;2023-02-02T10:56:01;102051.42;;;7.59;67.39
61761;BME280;47664;51.660;-0.100;2023-02-02T10:58:37;102053.44;;;7.20;67.91
61761;BME280;47664;51.660;-0.100;2023-02-02T11:01:12;102050.13;;;7.29;68.45
61761;BME280;47664;51.660;-0.100;2023-02-02T11:03:44;102048.84;;;7.42;68.57
61761;BME280;47664;51.660;-0.100;2023-02-02T11:06:16;102046.36;;;7.37;68.96
61761;BME280;47664;51.660;-0.100;2023-02-02T11:08:51;102041.15;;;7.55;68.10
61761;BME280;47664;51.660;-0.100;2023-02-02T11:11:20;102037.70;;;7.72;67.80
61761;BME280;47664;51.660;-0.100;2023-02-02T11:13:52;102037.62;;;7.51;68.34
61761;BME280;47664;51.660;-0.100;2023-02-02T11:16:25;102038.07;;;7.74;67.82
61761;BME280;47664;51.660;-0.100;2023-02-02T11:18:59;102038.95;;;8.20;67.09
61761;BME280;47664;51.660;-0.100;2023-02-02T11:21:33;102044.35;;;7.78;68.01
61761;BME280;47664;51.660;-0.100;2023-02-02T11:24:20;102042.77;;;7.90;67.64
61761;BME280;47664;51.660;-0.100;2023-02-02T11:26:55;102048.85;;;7.62;68.43
61761;BME280;47664;51.660;-0.100;2023-02-02T11:29:28;102048.06;;;7.77;68.20
61761;BME280;47664;51.660;-0.100;2023-02-02T11:32:16;102045.47;;;8.41;67.22
61761;BME280;47664;51.660;-0.100;2023-02-02T11:34:48;102037.61;;;8.49;66.10
61761;BME280;47664;51.660;-0.100;2023-02-02T11:37:37;102036.12;;;8.30;66.05
61761;BME280;47664;51.660;-0.100;2023-02-02T11:40:22;102036.81;;;8.33;66.29
61761;BME280;47664;51.660;-0.100;2023-02-02T11:42:59;102030.54;;;8.02;67.18
61761;BME280;47664;51.660;-0.100;2023-02-02T11:45:37;102031.70;;;8.53;66.81
61761;BME280;47664;51.660;-0.100;2023-02-02T11:48:14;102025.11;;;8.36;66.45
61761;BME280;47664;51.660;-0.100;2023-02-02T11:50:51;102022.24;;;8.44;65.99
61761;BME280;47664;51.660;-0.100;2023-02-02T11:53:23;102020.76;;;8.69;66.19
61761;BME280;47664;51.660;-0.100;2023-02-02T11:55:56;102014.11;;;8.84;66.24
61761;BME280;47664;51.660;-0.100;2023-02-02T11:58:42;102014.73;;;9.15;65.83
61761;BME280;47664;51.660;-0.100;2023-02-02T12:01:22;102010.92;;;9.03;65.19
61761;BME280;47664;51.660;-0.100;2023-02-02T12:03:56;102004.63;;;8.63;64.59
61761;BME280;47664;51.660;-0.100;2023-02-02T12:06:33;102002.91;;;8.74;65.74
61761;BME280;47664;51.660;-0.100;2023-02-02T12:09:09;102002.54;;;8.68;65.46
61761;BME280;47664;51.660;-0.100;2023-02-02T12:11:47;102002.89;;;8.48;65.79
61761;BME280;47664;51.660;-0.100;2023-02-02T12:14:33;102001.31;;;8.47;66.16
61761;BME280;47664;51.660;-0.100;2023-02-02T12:17:15;101991.80;;;8.54;65.76
61761;BME280;47664;51.660;-0.100;2023-02-02T12:20:02;101987.81;;;8.67;66.02
61761;BME280;47664;51.660;-0.100;2023-02-02T12:22:45;101983.89;;;8.62;65.45
61761;BME280;47664;51.660;-0.100;2023-02-02T12:25:38;101983.54;;;8.72;65.92
61761;BME280;47664;51.660;-0.100;2023-02-02T12:28:17;101983.00;;;9.13;64.75
61761;BME280;47664;51.660;-0.100;2023-02-02T12:30:54;101978.34;;;9.23;64.34
61761;BME280;47664;51.660;-0.100;2023-02-02T12:33:33;101974.51;;;9.70;63.32
61761;BME280;47664;51.660;-0.100;2023-02-02T12:36:18;101975.68;;;9.42;62.93
61761;BME280;47664;51.660;-0.100;2023-02-02T12:39:05;101971.95;;;9.43;63.50
61761;BME280;47664;51.660;-0.100;2023-02-02T12:41:45;101977.62;;;9.06;63.56
61761;BME280;47664;51.660;-0.100;2023-02-02T12:44:21;101979.88;;;9.27;63.43
61761;BME280;47664;51.660;-0.100;2023-02-02T12:47:01;101973.54;;;8.96;63.49
61761;BME280;47664;51.660;-0.100;2023-02-02T12:49:49;101972.99;;;9.51;63.00
61761;BME280;47664;51.660;-0.100;2023-02-02T12:52:32;101971.77;;;9.21;62.67
61761;BME280;47664;51.660;-0.100;2023-02-02T12:55:15;101972.41;;;9.69;62.03
61761;BME280;47664;51.660;-0.100;2023-02-02T12:57:55;101974.07;;;9.39;61.76
61761;BME280;47664;51.660;-0.100;2023-02-02T13:00:36;101966.27;;;9.81;60.95
61761;BME280;47664;51.660;-0.100;2023-02-02T13:03:20;101962.89;;;9.21;61.44
61761;BME280;47664;51.660;-0.100;2023-02-02T13:06:06;101967.10;;;9.14;60.98
61761;BME280;47664;51.660;-0.100;2023-02-02T13:08:41;101959.47;;;9.26;60.94
61761;BME280;47664;51.660;-0.100;2023-02-02T13:11:19;101952.76;;;9.66;60.69
61761;BME280;47664;51.660;-0.100;2023-02-02T13:13:53;101947.50;;;9.69;60.62
61761;BME280;47664;51.660;-0.100;2023-02-02T13:16:26;101941.15;;;9.51;61.71
61761;BME280;47664;51.660;-0.100;2023-02-02T13:19:00;101941.73;;;9.14;61.68
61761;BME280;47664;51.660;-0.100;2023-02-02T13:21:35;101938.55;;;9.32;61.48
61761;BME280;47664;51.660;-0.100;2023-02-02T13:24:11;101940.11;;;9.44;60.88
61761;BME280;47664;51.660;-0.100;2023-02-02T13:26:47;101939.93;;;9.30;60.77
61761;BME280;47664;51.660;-0.100;2023-02-02T13:29:22;101938.93;;;9.06;61.32